createdAt,value
2022-11-28T00:00:05.648Z,95.05
2022-11-28T00:01:05.643Z,95.15
2022-11-28T00:02:05.787Z,95.15
2022-11-28T00:03:05.755Z,95.15
2022-11-28T00:04:06.944Z,95.25
2022-11-28T00:05:05.614Z,95.36
2022-11-28T00:06:05.591Z,95.25
2022-11-28T00:07:05.563Z,95.25
2022-11-28T00:08:05.934Z,95.25
2022-11-28T00:09:05.539Z,95.25
2022-11-28T00:10:05.561Z,95.15
2022-11-28T00:11:05.542Z,95.25
2022-11-28T00:12:05.513Z,95.46
2022-11-28T00:13:05.493Z,95.46
2022-11-28T00:14:05.521Z,95.36
2022-11-28T00:15:05.483Z,95.36
2022-11-28T00:16:05.620Z,95.36
2022-11-28T00:17:05.453Z,95.25
2022-11-28T00:18:05.442Z,95.21
2022-11-28T00:19:05.433Z,95.21
2022-11-28T00:20:05.420Z,95.21
2022-11-28T00:21:05.407Z,95.15
2022-11-28T00:22:05.423Z,95.10
2022-11-28T00:23:05.430Z,95.10
2022-11-28T00:24:05.375Z,95.00
2022-11-28T00:25:05.359Z,95.00
2022-11-28T00:26:05.359Z,95.05
2022-11-28T00:27:05.871Z,95.00
2022-11-28T00:28:05.370Z,95.00
2022-11-28T00:29:05.326Z,95.00
2022-11-28T00:30:05.309Z,95.00
2022-11-28T00:31:05.289Z,95.00
2022-11-28T00:32:05.380Z,95.00
2022-11-28T00:33:05.270Z,95.10
2022-11-28T00:34:05.297Z,95.10
2022-11-28T00:35:05.251Z,95.10
2022-11-28T00:36:05.258Z,95.10
2022-11-28T00:37:05.251Z,95.21
2022-11-28T00:38:05.223Z,95.21
2022-11-28T00:39:05.208Z,95.21
2022-11-28T00:40:05.240Z,95.31
2022-11-28T00:41:05.181Z,95.52
2022-11-28T00:42:05.179Z,95.42
2022-11-28T00:43:05.161Z,95.52
2022-11-28T00:44:05.152Z,95.52
2022-11-28T00:45:05.158Z,95.42
2022-11-28T00:46:05.238Z,95.52
2022-11-28T00:47:05.114Z,95.42
2022-11-28T00:48:05.129Z,95.42
2022-11-28T00:49:05.113Z,95.42
2022-11-28T00:50:05.135Z,95.42
2022-11-28T00:51:05.103Z,95.42
2022-11-28T00:52:05.460Z,95.46
2022-11-28T00:53:05.050Z,95.52
2022-11-28T00:54:05.039Z,95.52
2022-11-28T00:55:05.026Z,95.52
2022-11-28T00:56:05.017Z,95.52
2022-11-28T00:57:05.865Z,95.52
2022-11-28T00:58:05.052Z,95.52
2022-11-28T00:59:04.999Z,95.42
2022-11-28T01:00:04.971Z,95.52
2022-11-28T01:01:04.995Z,95.52
2022-11-28T01:02:05.050Z,95.52
2022-11-28T01:03:04.957Z,95.52
2022-11-28T01:04:05.403Z,95.42
2022-11-28T01:05:04.912Z,95.42
2022-11-28T01:06:04.904Z,95.42
2022-11-28T01:07:04.888Z,95.42
2022-11-28T01:08:04.936Z,95.52
2022-11-28T01:09:04.888Z,95.42
2022-11-28T01:10:04.902Z,95.62
2022-11-28T01:11:04.842Z,95.62
2022-11-28T01:12:04.857Z,95.62
2022-11-28T01:13:04.824Z,95.62
2022-11-28T01:14:04.815Z,95.62
2022-11-28T01:15:04.795Z,95.62
2022-11-28T01:16:04.849Z,95.83
2022-11-28T01:17:04.791Z,95.83
2022-11-28T01:18:04.772Z,95.83
2022-11-28T01:19:04.833Z,95.93
2022-11-28T01:20:04.794Z,95.93
2022-11-28T01:21:04.733Z,95.93
2022-11-28T01:22:04.750Z,95.93
2022-11-28T01:23:04.716Z,95.83
2022-11-28T01:24:04.714Z,95.42
2022-11-28T01:25:04.697Z,95.31
2022-11-28T01:26:04.685Z,95.10
2022-11-28T01:27:04.662Z,95.00
2022-11-28T01:28:04.707Z,95.00
2022-11-28T01:29:04.680Z,95.00
2022-11-28T01:30:04.673Z,95.00
2022-11-28T01:31:04.735Z,95.10
2022-11-28T01:32:04.617Z,95.10
2022-11-28T01:33:04.684Z,95.00
2022-11-28T01:34:04.619Z,95.00
2022-11-28T01:35:04.603Z,95.00
2022-11-28T01:36:04.575Z,95.10
2022-11-28T01:37:04.630Z,95.00
2022-11-28T01:38:04.572Z,95.10
2022-11-28T01:39:04.556Z,95.00
2022-11-28T01:40:04.575Z,95.10
2022-11-28T01:41:04.565Z,95.00
2022-11-28T01:42:04.504Z,95.00
2022-11-28T01:43:04.524Z,94.90
2022-11-28T01:44:04.487Z,94.90
2022-11-28T01:45:04.486Z,94.80
2022-11-28T01:46:04.543Z,94.80
2022-11-28T01:47:04.536Z,94.90
2022-11-28T01:48:04.467Z,95.00
2022-11-28T01:49:04.450Z,94.90
2022-11-28T01:50:04.556Z,94.80
2022-11-28T01:51:04.439Z,94.80
2022-11-28T01:52:04.464Z,94.80
2022-11-28T01:53:05.244Z,94.59
2022-11-28T01:54:04.411Z,94.59
2022-11-28T01:55:04.362Z,94.59
2022-11-28T01:56:04.372Z,94.70
2022-11-28T01:57:05.373Z,94.70
2022-11-28T01:58:04.405Z,94.59
2022-11-28T01:59:04.327Z,94.49
2022-11-28T02:00:04.319Z,94.38
2022-11-28T02:01:04.340Z,94.28
2022-11-28T02:02:04.380Z,94.18
2022-11-28T02:03:04.306Z,94.28
2022-11-28T02:04:04.259Z,94.28
2022-11-28T02:05:04.297Z,94.28
2022-11-28T02:06:04.303Z,94.18
2022-11-28T02:07:04.232Z,94.28
2022-11-28T02:08:04.301Z,94.38
2022-11-28T02:09:04.267Z,94.49
2022-11-28T02:10:04.208Z,94.80
2022-11-28T02:11:04.184Z,94.90
2022-11-28T02:12:04.201Z,94.90
2022-11-28T02:13:04.159Z,95.00
2022-11-28T02:14:04.145Z,95.00
2022-11-28T02:15:04.159Z,95.21
2022-11-28T02:16:04.167Z,95.21
2022-11-28T02:17:04.119Z,95.42
2022-11-28T02:18:04.101Z,95.52
2022-11-28T02:19:04.137Z,95.62
2022-11-28T02:20:04.138Z,95.62
2022-11-28T02:21:04.074Z,95.62
2022-11-28T02:22:04.099Z,95.62
2022-11-28T02:23:04.067Z,95.73
2022-11-28T02:24:04.053Z,95.73
2022-11-28T02:25:04.055Z,95.73
2022-11-28T02:26:04.052Z,95.83
2022-11-28T02:27:04.040Z,95.83
2022-11-28T02:28:04.032Z,95.83
2022-11-28T02:29:04.031Z,95.93
2022-11-28T02:30:03.967Z,96.03
2022-11-28T02:31:04.087Z,96.03
2022-11-28T02:32:03.967Z,96.34
2022-11-28T02:33:03.971Z,96.34
2022-11-28T02:34:03.943Z,96.45
2022-11-28T02:35:03.917Z,96.45
2022-11-28T02:36:03.896Z,96.45
2022-11-28T02:37:03.964Z,96.45
2022-11-28T02:38:03.886Z,96.45
2022-11-28T02:39:03.876Z,96.45
2022-11-28T02:40:03.860Z,96.45
2022-11-28T02:41:03.844Z,96.55
2022-11-28T02:42:03.915Z,96.55
2022-11-28T02:43:03.854Z,96.55
2022-11-28T02:44:04.548Z,96.66
2022-11-28T02:45:03.801Z,96.66
2022-11-28T02:46:03.793Z,96.66
2022-11-28T02:47:03.815Z,96.75
2022-11-28T02:48:03.782Z,96.75
2022-11-28T02:49:03.830Z,96.75
2022-11-28T02:50:03.872Z,96.86
2022-11-28T02:51:03.745Z,96.86
2022-11-28T02:52:03.752Z,96.86
2022-11-28T02:53:03.738Z,96.86
2022-11-28T02:54:03.708Z,96.86
2022-11-28T02:55:03.740Z,96.86
2022-11-28T02:56:03.686Z,96.86
2022-11-28T02:57:03.681Z,96.96
2022-11-28T02:58:03.656Z,96.96
2022-11-28T02:59:03.697Z,96.96
2022-11-28T03:00:03.635Z,96.96
2022-11-28T03:01:03.738Z,97.06
2022-11-28T03:02:03.713Z,97.06
2022-11-28T03:03:03.608Z,97.06
2022-11-28T03:04:03.596Z,97.06
2022-11-28T03:05:03.621Z,97.06
2022-11-28T03:06:03.589Z,97.17
2022-11-28T03:07:03.589Z,97.17
2022-11-28T03:08:03.605Z,97.27
2022-11-28T03:09:03.544Z,97.27
2022-11-28T03:10:03.525Z,97.27
2022-11-28T03:11:03.528Z,97.38
2022-11-28T03:12:03.528Z,97.27
2022-11-28T03:13:03.505Z,97.38
2022-11-28T03:14:03.497Z,97.38
2022-11-28T03:15:03.493Z,97.38
2022-11-28T03:16:04.372Z,97.38
2022-11-28T03:17:03.477Z,97.38
2022-11-28T03:18:03.436Z,97.38
2022-11-28T03:19:03.431Z,97.48
2022-11-28T03:20:03.442Z,97.68
2022-11-28T03:21:03.409Z,97.68
2022-11-28T03:22:03.426Z,97.78
2022-11-28T03:23:03.387Z,97.78
2022-11-28T03:24:03.383Z,97.78
2022-11-28T03:25:03.366Z,97.78
2022-11-28T03:26:03.347Z,97.68
2022-11-28T03:27:03.355Z,97.99
2022-11-28T03:28:03.372Z,98.10
2022-11-28T03:29:03.360Z,98.10
2022-11-28T03:30:03.306Z,98.20
2022-11-28T03:31:03.407Z,98.30
2022-11-28T03:32:03.291Z,98.30
2022-11-28T03:33:03.312Z,98.30
2022-11-28T03:34:03.259Z,98.30
2022-11-28T03:35:03.253Z,98.20
2022-11-28T03:36:03.234Z,98.20
2022-11-28T03:37:03.270Z,98.30
2022-11-28T03:38:03.254Z,98.30
2022-11-28T03:39:03.208Z,98.41
2022-11-28T03:40:03.217Z,98.41
2022-11-28T03:41:03.191Z,98.30
2022-11-28T03:42:03.185Z,98.20
2022-11-28T03:43:03.192Z,98.30
2022-11-28T03:44:03.187Z,98.30
2022-11-28T03:45:03.136Z,98.30
2022-11-28T03:46:03.167Z,98.41
2022-11-28T03:47:03.164Z,98.30
2022-11-28T03:48:03.135Z,98.25
2022-11-28T03:49:03.090Z,98.30
2022-11-28T03:50:03.096Z,98.50
2022-11-28T03:51:03.071Z,98.41
2022-11-28T03:52:03.069Z,98.61
2022-11-28T03:53:03.071Z,98.61
2022-11-28T03:54:03.064Z,98.57
2022-11-28T03:55:03.031Z,98.57
2022-11-28T03:56:03.076Z,98.46
2022-11-28T03:57:03.035Z,98.46
2022-11-28T03:58:03.022Z,98.46
2022-11-28T03:59:03.015Z,98.46
2022-11-28T04:00:02.998Z,98.46
2022-11-28T04:01:03.051Z,98.46
2022-11-28T04:02:02.953Z,98.57
2022-11-28T04:03:03.036Z,98.57
2022-11-28T04:04:02.931Z,98.57
2022-11-28T04:05:02.915Z,98.77
2022-11-28T04:06:02.905Z,98.77
2022-11-28T04:07:02.896Z,98.67
2022-11-28T04:08:02.981Z,98.82
2022-11-28T04:09:02.895Z,99.02
2022-11-28T04:10:02.869Z,99.08
2022-11-28T04:11:02.865Z,99.08
2022-11-28T04:12:02.840Z,98.97
2022-11-28T04:13:02.830Z,98.97
2022-11-28T04:14:02.841Z,98.97
2022-11-28T04:15:02.800Z,98.97
2022-11-28T04:16:02.875Z,98.97
2022-11-28T04:17:02.843Z,98.97
2022-11-28T04:18:02.774Z,98.97
2022-11-28T04:19:02.782Z,98.97
2022-11-28T04:20:02.749Z,98.88
2022-11-28T04:21:02.736Z,98.97
2022-11-28T04:22:02.733Z,98.97
2022-11-28T04:23:02.711Z,98.97
2022-11-28T04:24:02.730Z,99.08
2022-11-28T04:25:02.692Z,99.08
2022-11-28T04:26:02.689Z,99.18
2022-11-28T04:27:02.669Z,99.18
2022-11-28T04:28:02.660Z,99.18
2022-11-28T04:29:02.674Z,99.18
2022-11-28T04:30:02.643Z,99.18
2022-11-28T04:31:02.636Z,99.29
2022-11-28T04:32:02.700Z,99.18
2022-11-28T04:33:02.605Z,99.29
2022-11-28T04:34:02.617Z,99.18
2022-11-28T04:35:02.601Z,99.39
2022-11-28T04:36:02.592Z,99.60
2022-11-28T04:37:08.335Z,99.60
2022-11-28T04:38:02.562Z,99.60
2022-11-28T04:39:02.569Z,99.60
2022-11-28T04:40:02.551Z,99.60
2022-11-28T04:41:02.520Z,99.60
2022-11-28T04:42:02.515Z,99.60
2022-11-28T04:43:02.497Z,99.60
2022-11-28T04:44:02.498Z,99.49
2022-11-28T04:45:02.517Z,99.49
2022-11-28T04:46:02.509Z,99.49
2022-11-28T04:47:02.463Z,99.60
2022-11-28T04:48:02.434Z,99.70
2022-11-28T04:49:02.484Z,99.70
2022-11-28T04:50:02.415Z,99.70
2022-11-28T04:51:02.433Z,99.70
2022-11-28T04:52:02.403Z,99.70
2022-11-28T04:53:02.389Z,99.70
2022-11-28T04:54:02.380Z,99.70
2022-11-28T04:55:02.374Z,99.70
2022-11-28T04:56:02.350Z,99.70
2022-11-28T04:57:02.361Z,99.70
2022-11-28T04:58:02.329Z,99.70
2022-11-28T04:59:02.311Z,99.70
2022-11-28T05:00:02.322Z,99.70
2022-11-28T05:01:02.378Z,99.70
2022-11-28T05:02:02.370Z,99.70
2022-11-28T05:03:02.311Z,99.70
2022-11-28T05:04:02.266Z,99.80
2022-11-28T05:05:02.249Z,99.70
2022-11-28T05:06:02.263Z,99.70
2022-11-28T05:07:02.225Z,99.80
2022-11-28T05:08:02.339Z,99.80
2022-11-28T05:09:02.227Z,99.80
2022-11-28T05:10:02.196Z,99.80
2022-11-28T05:11:02.179Z,99.80
2022-11-28T05:12:02.174Z,99.85
2022-11-28T05:13:02.156Z,99.80
2022-11-28T05:14:02.155Z,99.95
2022-11-28T05:15:02.156Z,99.95
2022-11-28T05:16:02.163Z,99.95
2022-11-28T05:17:02.121Z,99.95
2022-11-28T05:18:02.108Z,99.95
2022-11-28T05:19:02.089Z,99.95
2022-11-28T05:20:02.116Z,99.85
2022-11-28T05:21:02.068Z,99.95
2022-11-28T05:22:02.068Z,99.95
2022-11-28T05:23:02.048Z,99.95
2022-11-28T05:24:02.040Z,99.95
2022-11-28T05:25:02.073Z,99.95
2022-11-28T05:26:02.039Z,99.95
2022-11-28T05:27:02.036Z,99.99
2022-11-28T05:28:02.008Z,99.95
2022-11-28T05:29:02.051Z,99.99
2022-11-28T05:30:01.977Z,99.95
2022-11-28T05:31:02.024Z,99.95
2022-11-28T05:32:02.032Z,99.99
2022-11-28T05:33:01.949Z,99.99
2022-11-28T05:34:01.929Z,99.99
2022-11-28T05:35:01.916Z,99.99
2022-11-28T05:36:01.907Z,99.99
2022-11-28T05:37:02.012Z,99.99
2022-11-28T05:38:01.885Z,99.99
2022-11-28T05:39:01.873Z,99.99
2022-11-28T05:40:01.887Z,99.99
2022-11-28T05:41:01.888Z,99.99
2022-11-28T05:42:01.890Z,99.99
2022-11-28T05:43:01.863Z,99.99
2022-11-28T05:44:01.859Z,99.99
2022-11-28T05:45:01.808Z,99.99
2022-11-28T05:46:01.868Z,99.99
2022-11-28T05:47:01.898Z,99.99
2022-11-28T05:48:01.793Z,99.99
2022-11-28T05:49:01.872Z,99.99
2022-11-28T05:50:01.747Z,99.99
2022-11-28T05:51:01.740Z,99.99
2022-11-28T05:52:01.724Z,99.99
2022-11-28T05:53:01.737Z,99.99
2022-11-28T05:54:01.708Z,99.99
2022-11-28T05:55:01.758Z,99.99
2022-11-28T05:56:01.679Z,99.99
2022-11-28T05:57:01.673Z,99.99
2022-11-28T05:58:01.684Z,99.99
2022-11-28T05:59:01.649Z,99.99
2022-11-28T06:00:01.699Z,99.99
2022-11-28T06:01:01.626Z,99.99
2022-11-28T06:02:01.708Z,99.99
2022-11-28T06:03:01.965Z,99.99
2022-11-28T06:04:01.673Z,99.99
2022-11-28T06:05:16.191Z,99.99
2022-11-28T06:06:01.575Z,99.99
2022-11-28T06:07:01.589Z,99.99
2022-11-28T06:08:01.620Z,99.99
2022-11-28T06:09:01.537Z,99.99
2022-11-28T06:10:01.520Z,99.99
2022-11-28T06:11:01.526Z,99.99
2022-11-28T06:12:01.501Z,99.99
2022-11-28T06:13:01.516Z,99.99
2022-11-28T06:14:01.480Z,99.99
2022-11-28T06:15:01.470Z,99.99
2022-11-28T06:16:01.612Z,99.99
2022-11-28T06:17:01.594Z,99.99
2022-11-28T06:18:01.468Z,99.99
2022-11-28T06:19:01.451Z,99.99
2022-11-28T06:20:01.410Z,99.99
2022-11-28T06:21:01.413Z,99.99
2022-11-28T06:22:01.384Z,99.99
2022-11-28T06:23:01.406Z,99.99
2022-11-28T06:24:01.374Z,99.99
2022-11-28T06:25:01.361Z,99.99
2022-11-28T06:26:01.342Z,99.99
2022-11-28T06:27:01.337Z,99.99
2022-11-28T06:28:01.343Z,99.99
2022-11-28T06:29:01.347Z,99.99
2022-11-28T06:30:01.297Z,99.99
2022-11-28T06:31:01.291Z,99.99
2022-11-28T06:32:01.324Z,99.99
2022-11-28T06:33:01.292Z,99.99
2022-11-28T06:34:01.271Z,99.99
2022-11-28T06:35:01.283Z,99.99
2022-11-28T06:36:01.276Z,99.99
2022-11-28T06:37:01.223Z,99.99
2022-11-28T06:38:01.232Z,99.99
2022-11-28T06:39:01.213Z,99.99
2022-11-28T06:40:01.193Z,99.99
2022-11-28T06:41:01.175Z,99.99
2022-11-28T06:42:01.187Z,99.99
2022-11-28T06:43:01.180Z,99.99
2022-11-28T06:44:01.250Z,99.99
2022-11-28T06:45:01.129Z,99.99
2022-11-28T06:46:01.171Z,99.99
2022-11-28T06:47:01.116Z,99.99
2022-11-28T06:48:01.123Z,99.99
2022-11-28T06:49:01.085Z,99.99
2022-11-28T06:50:01.131Z,99.99
2022-11-28T06:51:01.071Z,99.99
2022-11-28T06:52:01.059Z,99.99
2022-11-28T06:53:01.068Z,99.99
2022-11-28T06:54:01.067Z,99.99
2022-11-28T06:55:01.026Z,99.99
2022-11-28T06:56:01.012Z,99.99
2022-11-28T06:57:00.997Z,99.99
2022-11-28T06:58:01.020Z,99.99
2022-11-28T06:59:00.979Z,99.99
2022-11-28T07:00:01.047Z,99.99
2022-11-28T07:01:01.028Z,99.99
2022-11-28T07:02:06.973Z,99.99
2022-11-28T07:03:00.962Z,99.99
2022-11-28T07:04:00.927Z,99.99
2022-11-28T07:05:00.944Z,99.99
2022-11-28T07:06:00.928Z,99.99
2022-11-28T07:07:00.948Z,99.99
2022-11-28T07:08:00.930Z,99.99
2022-11-28T07:09:00.863Z,99.99
2022-11-28T07:10:00.860Z,99.99
2022-11-28T07:11:00.842Z,99.99
2022-11-28T07:12:00.837Z,99.99
2022-11-28T07:13:05.209Z,99.99
2022-11-28T07:14:00.982Z,99.99
2022-11-28T07:15:00.836Z,99.99
2022-11-28T07:16:00.850Z,99.99
2022-11-28T07:17:00.883Z,99.99
2022-11-28T07:18:00.838Z,99.99
2022-11-28T07:19:00.756Z,99.99
2022-11-28T07:20:00.821Z,99.99
2022-11-28T07:21:00.745Z,99.99
2022-11-28T07:22:00.726Z,99.99
2022-11-28T07:23:00.751Z,99.99
2022-11-28T07:24:00.726Z,99.99
2022-11-28T07:25:00.694Z,99.99
2022-11-28T07:26:00.693Z,99.99
2022-11-28T07:27:00.664Z,99.99
2022-11-28T07:28:00.685Z,99.99
2022-11-28T07:29:00.644Z,99.99
2022-11-28T07:30:00.637Z,99.99
2022-11-28T07:31:00.620Z,99.99
2022-11-28T07:32:00.684Z,99.99
2022-11-28T07:33:00.630Z,99.99
2022-11-28T07:34:00.591Z,99.99
2022-11-28T07:35:00.577Z,99.99
2022-11-28T07:36:00.573Z,99.99
2022-11-28T07:37:00.554Z,99.99
2022-11-28T07:38:00.567Z,99.99
2022-11-28T07:39:00.537Z,99.99
2022-11-28T07:40:00.522Z,99.99
2022-11-28T07:41:00.531Z,99.99
2022-11-28T07:42:00.500Z,99.99
2022-11-28T07:43:00.516Z,99.99
2022-11-28T07:44:00.480Z,99.99
2022-11-28T07:45:00.471Z,99.99
2022-11-28T07:46:01.675Z,99.99
2022-11-28T07:47:00.551Z,99.99
2022-11-28T07:48:00.438Z,99.99
2022-11-28T07:49:00.433Z,99.99
2022-11-28T07:50:00.416Z,99.99
2022-11-28T07:51:00.406Z,99.99
2022-11-28T07:52:00.386Z,99.99
2022-11-28T07:53:05.626Z,99.99
2022-11-28T07:54:00.373Z,99.99
2022-11-28T07:55:00.360Z,99.99
2022-11-28T07:56:00.342Z,99.99
2022-11-28T07:57:15.656Z,99.99
2022-11-28T07:58:00.370Z,99.99
2022-11-28T07:59:03.228Z,99.99
2022-11-28T08:00:00.302Z,99.99
2022-11-28T08:01:00.290Z,99.99
2022-11-28T08:02:00.361Z,99.99
2022-11-28T08:03:00.296Z,99.99
2022-11-28T08:04:00.306Z,99.99
2022-11-28T08:05:00.336Z,99.99
2022-11-28T08:12:08.558Z,99.99
2022-11-28T08:12:13.485Z,99.99
2022-11-28T08:13:13.475Z,99.99
2022-11-28T08:14:13.462Z,99.99
2022-11-28T08:15:13.454Z,99.99
2022-11-28T08:16:13.488Z,99.99
2022-11-28T08:17:13.458Z,99.99
2022-11-28T08:18:13.435Z,99.99
2022-11-28T08:19:13.409Z,99.99
2022-11-28T08:20:13.394Z,99.99
2022-11-28T08:21:13.394Z,99.99
2022-11-28T08:22:13.404Z,99.99
2022-11-28T08:23:13.365Z,99.99
2022-11-28T08:24:13.346Z,99.99
2022-11-28T08:25:13.340Z,99.99
2022-11-28T08:26:13.329Z,99.99
2022-11-28T08:27:13.349Z,99.99
2022-11-28T08:28:13.308Z,99.99
2022-11-28T08:29:13.301Z,99.99
2022-11-28T08:30:13.281Z,99.99
2022-11-28T08:31:13.323Z,99.99
2022-11-28T08:32:13.283Z,99.99
2022-11-28T08:33:13.255Z,99.99
2022-11-28T08:34:13.254Z,99.99
2022-11-28T08:35:13.235Z,99.99
2022-11-28T08:36:13.218Z,99.99
2022-11-28T08:37:13.242Z,99.99
2022-11-28T08:38:13.198Z,99.99
2022-11-28T08:39:28.540Z,99.99
2022-11-28T08:40:13.193Z,99.99
2022-11-28T08:41:13.167Z,99.99
2022-11-28T08:42:13.181Z,99.99
2022-11-28T08:43:13.140Z,99.99
2022-11-28T08:44:13.137Z,99.99
2022-11-28T08:45:13.143Z,99.99
2022-11-28T08:46:13.234Z,99.99
2022-11-28T08:47:13.118Z,99.86
2022-11-28T08:48:13.089Z,99.96
2022-11-28T08:49:13.075Z,99.86
2022-11-28T08:50:13.066Z,99.86
2022-11-28T08:51:13.053Z,99.86
2022-11-28T08:52:13.065Z,99.86
2022-11-28T08:53:18.586Z,99.81
2022-11-28T08:54:13.031Z,99.81
2022-11-28T08:55:13.013Z,99.81
2022-11-28T08:56:13.009Z,99.81
2022-11-28T08:57:13.016Z,99.81
2022-11-28T08:58:12.976Z,99.71
2022-11-28T08:59:12.962Z,99.81
2022-11-28T09:00:12.963Z,99.81
2022-11-28T09:01:12.977Z,99.71
2022-11-28T09:02:12.958Z,99.71
2022-11-28T09:03:12.916Z,99.71
2022-11-28T09:04:12.955Z,99.71
2022-11-28T09:05:12.897Z,99.71
2022-11-28T09:06:12.888Z,99.60
2022-11-28T09:07:12.961Z,99.60
2022-11-28T09:08:12.938Z,99.60
2022-11-28T09:09:12.851Z,99.60
2022-11-28T09:10:12.837Z,99.60
2022-11-28T09:11:12.834Z,99.60
2022-11-28T09:12:12.841Z,99.60
2022-11-28T09:13:12.811Z,99.60
2022-11-28T09:14:12.796Z,99.60
2022-11-28T09:15:12.788Z,99.60
2022-11-28T09:16:12.775Z,99.60
2022-11-28T09:17:12.829Z,99.56
2022-11-28T09:18:12.751Z,99.60
2022-11-28T09:19:12.749Z,99.60
2022-11-28T09:20:12.730Z,99.56
2022-11-28T09:21:12.724Z,99.46
2022-11-28T09:22:12.732Z,99.46
2022-11-28T09:23:12.702Z,99.46
2022-11-28T09:24:12.685Z,99.46
2022-11-28T09:25:12.678Z,99.46
2022-11-28T09:26:12.663Z,99.35
2022-11-28T09:27:12.702Z,99.35
2022-11-28T09:28:12.641Z,99.35
2022-11-28T09:29:12.634Z,99.35
2022-11-28T09:30:12.617Z,99.35
2022-11-28T09:31:12.822Z,99.25
2022-11-28T09:32:12.651Z,99.25
2022-11-28T09:33:12.592Z,99.15
2022-11-28T09:34:12.575Z,99.15
2022-11-28T09:35:12.632Z,99.15
2022-11-28T09:36:12.554Z,99.15
2022-11-28T09:37:12.649Z,99.15
2022-11-28T09:38:12.528Z,99.15
2022-11-28T09:39:12.536Z,99.19
2022-11-28T09:40:13.760Z,99.09
2022-11-28T09:41:12.491Z,99.05
2022-11-28T09:42:12.513Z,99.09
2022-11-28T09:43:12.470Z,99.09
2022-11-28T09:44:12.467Z,99.05
2022-11-28T09:45:12.451Z,98.94
2022-11-28T09:46:12.464Z,98.94
2022-11-28T09:47:12.456Z,98.94
2022-11-28T09:48:12.424Z,98.94
2022-11-28T09:49:12.405Z,98.84
2022-11-28T09:50:12.417Z,98.94
2022-11-28T09:51:12.442Z,98.84
2022-11-28T09:52:12.438Z,98.84
2022-11-28T09:53:12.360Z,98.63
2022-11-28T09:54:12.358Z,98.63
2022-11-28T09:55:12.336Z,98.63
2022-11-28T09:56:12.343Z,98.63
2022-11-28T09:57:12.342Z,98.63
2022-11-28T09:58:12.314Z,98.63
2022-11-28T09:59:12.294Z,98.63
2022-11-28T10:00:12.288Z,98.63
2022-11-28T10:01:12.279Z,98.63
2022-11-28T10:02:12.287Z,98.63
2022-11-28T10:03:12.337Z,98.63
2022-11-28T10:04:12.376Z,98.63
2022-11-28T10:05:12.315Z,98.74
2022-11-28T10:06:12.228Z,98.74
2022-11-28T10:07:12.230Z,98.74
2022-11-28T10:08:12.197Z,98.63
2022-11-28T10:09:12.186Z,98.63
2022-11-28T10:10:12.183Z,98.74
2022-11-28T10:11:12.164Z,98.74
2022-11-28T10:12:12.184Z,98.74
2022-11-28T10:13:12.142Z,98.74
2022-11-28T10:14:12.194Z,98.53
2022-11-28T10:15:12.118Z,98.43
2022-11-28T10:16:12.247Z,98.22
2022-11-28T10:17:12.162Z,98.22
2022-11-28T10:18:12.089Z,98.22
2022-11-28T10:19:25.546Z,98.22
2022-11-28T10:20:12.088Z,98.22
2022-11-28T10:21:12.049Z,98.22
2022-11-28T10:22:12.069Z,98.33
2022-11-28T10:23:12.034Z,98.33
2022-11-28T10:24:12.032Z,98.33
2022-11-28T10:25:12.010Z,98.33
2022-11-28T10:26:12.001Z,98.28
2022-11-28T10:27:12.012Z,98.38
2022-11-28T10:28:11.977Z,98.38
2022-11-28T10:29:11.969Z,98.49
2022-11-28T10:30:11.997Z,98.49
2022-11-28T10:31:11.952Z,98.28
2022-11-28T10:32:11.958Z,98.22
2022-11-28T10:33:11.917Z,97.40
2022-11-28T10:34:11.924Z,97.40
2022-11-28T10:35:11.897Z,96.78
2022-11-28T10:36:11.889Z,96.78
2022-11-28T10:37:11.899Z,96.78
2022-11-28T10:38:11.868Z,97.30
2022-11-28T10:39:11.856Z,97.40
2022-11-28T10:40:11.877Z,97.40
2022-11-28T10:41:11.833Z,96.68
2022-11-28T10:42:11.860Z,95.96
2022-11-28T10:43:11.811Z,95.96
2022-11-28T10:44:14.779Z,96.17
2022-11-28T10:45:11.797Z,96.27
2022-11-28T10:46:11.851Z,96.33
2022-11-28T10:47:11.795Z,96.43
2022-11-28T10:48:38.012Z,96.53
2022-11-28T10:49:11.751Z,96.64
2022-11-28T10:50:11.727Z,96.33
2022-11-28T10:51:11.720Z,96.33
2022-11-28T10:52:11.734Z,96.12
2022-11-28T10:53:11.706Z,96.22
2022-11-28T10:54:11.687Z,96.12
2022-11-28T10:55:11.681Z,96.02
2022-11-28T10:56:11.940Z,96.12
2022-11-28T10:57:11.720Z,96.12
2022-11-28T10:58:11.664Z,96.02
2022-11-28T10:59:11.632Z,96.02
2022-11-28T11:00:11.613Z,96.02
2022-11-28T11:01:11.733Z,96.02
2022-11-28T11:02:11.592Z,96.02
2022-11-28T11:03:11.618Z,96.02
2022-11-28T11:04:11.646Z,96.22
2022-11-28T11:05:11.565Z,95.81
2022-11-28T11:06:11.551Z,95.20
2022-11-28T11:07:16.393Z,95.09
2022-11-28T11:08:11.628Z,95.30
2022-11-28T11:09:11.522Z,95.40
2022-11-28T11:10:11.500Z,95.61
2022-11-28T11:11:11.498Z,95.61
2022-11-28T11:12:11.479Z,95.61
2022-11-28T11:13:11.500Z,95.67
2022-11-28T11:14:11.458Z,95.67
2022-11-28T11:15:11.456Z,95.87
2022-11-28T11:16:11.609Z,95.87
2022-11-28T11:17:11.431Z,95.87
2022-11-28T11:18:11.447Z,95.97
2022-11-28T11:19:11.408Z,95.97
2022-11-28T11:20:11.393Z,95.93
2022-11-28T11:21:11.385Z,95.93
2022-11-28T11:22:11.373Z,95.93
2022-11-28T11:23:11.388Z,95.93
2022-11-28T11:24:11.349Z,95.83
2022-11-28T11:25:11.339Z,95.83
2022-11-28T11:26:11.326Z,95.72
2022-11-28T11:27:11.321Z,95.72
2022-11-28T11:28:11.332Z,95.72
2022-11-28T11:29:11.296Z,95.62
2022-11-28T11:30:11.285Z,95.72
2022-11-28T11:31:11.327Z,95.72
2022-11-28T11:32:11.254Z,95.57
2022-11-28T11:33:11.276Z,95.68
2022-11-28T11:34:11.248Z,95.68
2022-11-28T11:35:11.228Z,95.68
2022-11-28T11:36:11.213Z,95.78
2022-11-28T11:37:11.211Z,95.78
2022-11-28T11:38:11.214Z,95.78
2022-11-28T11:39:11.178Z,95.78
2022-11-28T11:40:11.176Z,95.78
2022-11-28T11:41:11.159Z,95.89
2022-11-28T11:42:11.152Z,95.89
2022-11-28T11:43:11.164Z,95.89
2022-11-28T11:44:11.128Z,95.89
2022-11-28T11:45:11.112Z,95.47
2022-11-28T11:46:11.234Z,95.62
2022-11-28T11:47:11.088Z,95.72
2022-11-28T11:48:11.104Z,96.09
2022-11-28T11:49:11.068Z,96.19
2022-11-28T11:50:11.064Z,96.19
2022-11-28T11:51:11.049Z,96.30
2022-11-28T11:52:11.035Z,96.40
2022-11-28T11:53:11.043Z,96.50
2022-11-28T11:54:11.014Z,96.50
2022-11-28T11:55:10.998Z,96.50
2022-11-28T11:56:10.996Z,96.60
2022-11-28T11:57:32.024Z,96.60
2022-11-28T11:58:10.998Z,96.60
2022-11-28T11:59:10.974Z,96.60
2022-11-28T12:00:10.947Z,96.60
2022-11-28T12:01:10.936Z,96.70
2022-11-28T12:02:10.990Z,96.70
2022-11-28T12:03:11.014Z,96.60
2022-11-28T12:04:30.639Z,96.60
2022-11-28T12:05:10.891Z,96.60
2022-11-28T12:06:15.105Z,96.60
2022-11-28T12:07:10.868Z,96.60
2022-11-28T12:08:10.887Z,96.60
2022-11-28T12:09:10.845Z,96.70
2022-11-28T12:10:10.841Z,96.77
2022-11-28T12:11:10.821Z,96.77
2022-11-28T12:12:10.813Z,96.77
2022-11-28T12:13:10.820Z,96.87
2022-11-28T12:14:10.791Z,96.87
2022-11-28T12:15:10.777Z,96.77
2022-11-28T12:16:10.811Z,96.77
2022-11-28T12:29:23.202Z,96.77
2022-11-28T12:29:28.132Z,96.56
2022-11-28T12:30:28.127Z,96.56
2022-11-28T12:31:28.211Z,96.56
2022-11-28T12:32:28.112Z,96.45
2022-11-28T12:33:28.111Z,96.45
2022-11-28T12:34:28.083Z,96.50
2022-11-28T12:35:28.062Z,96.40
2022-11-28T12:36:28.064Z,96.40
2022-11-28T12:37:42.088Z,96.40
2022-11-28T12:38:28.063Z,96.50
2022-11-28T12:39:28.024Z,96.50
2022-11-28T12:40:28.016Z,96.50
2022-11-28T12:41:32.408Z,96.60
2022-11-28T12:42:27.989Z,96.70
2022-11-28T12:43:27.998Z,96.81
2022-11-28T12:44:27.963Z,96.91
2022-11-28T12:45:27.960Z,96.87
2022-11-28T12:46:28.264Z,96.87
2022-11-28T12:47:27.938Z,96.91
2022-11-28T12:48:27.947Z,96.91
2022-11-28T12:49:27.912Z,96.81
2022-11-28T12:50:27.895Z,96.91
2022-11-28T12:51:27.899Z,97.02
2022-11-28T12:52:27.873Z,97.02
2022-11-28T12:53:27.891Z,97.02
2022-11-28T12:54:27.854Z,97.12
2022-11-28T12:55:27.843Z,97.12
2022-11-28T12:56:27.832Z,97.12
2022-11-28T12:57:27.823Z,97.22
2022-11-28T12:58:27.828Z,97.22
2022-11-28T12:59:27.799Z,97.22
2022-11-28T13:00:27.787Z,97.22
2022-11-28T13:01:27.889Z,97.22
2022-11-28T13:02:28.026Z,97.32
2022-11-28T13:03:27.822Z,97.32
2022-11-28T13:04:27.739Z,97.32
2022-11-28T13:05:27.746Z,97.32
2022-11-28T13:06:27.719Z,97.32
2022-11-28T13:07:27.739Z,97.32
2022-11-28T13:08:27.719Z,97.32